sensor_id;sensor_type;location;lat;lon;timestamp;P1;durP1;ratioP1;P2;durP2;ratioP2
15944;SDS011;30172;48.832;8.732;2023-01-28T00:00:04;9.50;;;6.47;;
15944;SDS011;30172;48.832;8.732;2023-01-28T00:02:33;7.30;;;6.03;;
15944;SDS011;30172;48.832;8.732;2023-01-28T00:04:58;8.80;;;5.87;;
15944;SDS011;30172;48.832;8.732;2023-01-28T00:07:24;7.50;;;6.27;;
15944;SDS011;30172;48.832;8.732;2023-01-28T00:09:49;7.70;;;5.90;;
15944;SDS011;30172;48.832;8.732;2023-01-28T00:12:14;9.60;;;6.27;;
15944;SDS011;30172;48.832;8.732;2023-01-28T00:14:40;10.20;;;6.17;;
15944;SDS011;30172;48.832;8.732;2023-01-28T00:17:05;9.40;;;6.47;;
15944;SDS011;30172;48.832;8.732;2023-01-28T00:19:30;9.83;;;6.30;;
15944;SDS011;30172;48.832;8.732;2023-01-28T00:21:55;7.77;;;6.10;;
15944;SDS011;30172;48.832;8.732;2023-01-28T00:24:21;9.63;;;6.53;;
15944;SDS011;30172;48.832;8.732;2023-01-28T00:26:46;9.13;;;6.23;;
15944;SDS011;30172;48.832;8.732;2023-01-28T00:29:11;9.93;;;6.80;;
15944;SDS011;30172;48.832;8.732;2023-01-28T00:31:37;10.17;;;6.23;;
15944;SDS011;30172;48.832;8.732;2023-01-28T00:34:04;9.50;;;6.43;;
15944;SDS011;30172;48.832;8.732;2023-01-28T00:36:30;9.30;;;6.50;;
15944;SDS011;30172;48.832;8.732;2023-01-28T00:38:56;9.13;;;6.23;;
15944;SDS011;30172;48.832;8.732;2023-01-28T00:41:23;9.53;;;6.60;;
15944;SDS011;30172;48.832;8.732;2023-01-28T00:43:50;8.10;;;5.47;;
15944;SDS011;30172;48.832;8.732;2023-01-28T00:46:16;8.50;;;5.97;;
15944;SDS011;30172;48.832;8.732;2023-01-28T00:48:41;9.67;;;6.30;;
15944;SDS011;30172;48.832;8.732;2023-01-28T00:51:08;9.27;;;6.03;;
15944;SDS011;30172;48.832;8.732;2023-01-28T00:53:35;7.50;;;5.77;;
15944;SDS011;30172;48.832;8.732;2023-01-28T00:56:01;9.67;;;6.03;;
15944;SDS011;30172;48.832;8.732;2023-01-28T00:58:27;8.40;;;5.80;;
15944;SDS011;30172;48.832;8.732;2023-01-28T01:00:52;7.63;;;5.43;;
15944;SDS011;30172;48.832;8.732;2023-01-28T01:03:18;7.37;;;5.83;;
15944;SDS011;30172;48.832;8.732;2023-01-28T01:05:43;7.17;;;5.03;;
15944;SDS011;30172;48.832;8.732;2023-01-28T01:08:09;8.00;;;5.07;;
15944;SDS011;30172;48.832;8.732;2023-01-28T01:10:34;8.57;;;5.07;;
15944;SDS011;30172;48.832;8.732;2023-01-28T01:13:02;7.43;;;5.27;;
15944;SDS011;30172;48.832;8.732;2023-01-28T01:15:28;8.93;;;5.37;;
15944;SDS011;30172;48.832;8.732;2023-01-28T01:17:53;8.10;;;5.67;;
15944;SDS011;30172;48.832;8.732;2023-01-28T01:20:24;6.80;;;4.77;;
15944;SDS011;30172;48.832;8.732;2023-01-28T01:22:51;9.07;;;5.40;;
15944;SDS011;30172;48.832;8.732;2023-01-28T01:25:17;5.97;;;4.77;;
15944;SDS011;30172;48.832;8.732;2023-01-28T01:27:43;7.50;;;5.47;;
15944;SDS011;30172;48.832;8.732;2023-01-28T01:30:10;8.07;;;5.30;;
15944;SDS011;30172;48.832;8.732;2023-01-28T01:32:36;6.60;;;5.53;;
15944;SDS011;30172;48.832;8.732;2023-01-28T01:35:02;6.23;;;4.73;;
15944;SDS011;30172;48.832;8.732;2023-01-28T01:37:30;6.27;;;4.60;;
15944;SDS011;30172;48.832;8.732;2023-01-28T01:39:55;8.40;;;5.50;;
15944;SDS011;30172;48.832;8.732;2023-01-28T01:42:21;6.07;;;4.23;;
15944;SDS011;30172;48.832;8.732;2023-01-28T01:47:14;6.30;;;5.27;;
15944;SDS011;30172;48.832;8.732;2023-01-28T01:49:40;6.13;;;4.40;;
15944;SDS011;30172;48.832;8.732;2023-01-28T01:52:08;6.17;;;4.20;;
15944;SDS011;30172;48.832;8.732;2023-01-28T01:54:36;6.17;;;4.77;;
15944;SDS011;30172;48.832;8.732;2023-01-28T01:57:03;6.73;;;5.03;;
15944;SDS011;30172;48.832;8.732;2023-01-28T01:59:30;6.90;;;4.73;;
15944;SDS011;30172;48.832;8.732;2023-01-28T02:01:57;6.43;;;4.90;;
15944;SDS011;30172;48.832;8.732;2023-01-28T02:04:26;7.03;;;4.37;;
15944;SDS011;30172;48.832;8.732;2023-01-28T02:06:54;5.63;;;4.10;;
15944;SDS011;30172;48.832;8.732;2023-01-28T02:09:27;6.80;;;4.50;;
15944;SDS011;30172;48.832;8.732;2023-01-28T02:12:02;7.00;;;4.67;;
15944;SDS011;30172;48.832;8.732;2023-01-28T02:14:30;7.13;;;4.87;;
15944;SDS011;30172;48.832;8.732;2023-01-28T02:17:01;7.50;;;4.70;;
15944;SDS011;30172;48.832;8.732;2023-01-28T02:19:36;7.43;;;4.77;;
15944;SDS011;30172;48.832;8.732;2023-01-28T02:22:05;7.47;;;4.70;;
15944;SDS011;30172;48.832;8.732;2023-01-28T02:27:30;7.03;;;4.63;;
15944;SDS011;30172;48.832;8.732;2023-01-28T02:30:06;6.57;;;4.70;;
15944;SDS011;30172;48.832;8.732;2023-01-28T02:32:59;6.73;;;5.00;;
15944;SDS011;30172;48.832;8.732;2023-01-28T02:35:40;5.63;;;4.47;;
15944;SDS011;30172;48.832;8.732;2023-01-28T02:38:17;6.47;;;4.63;;
15944;SDS011;30172;48.832;8.732;2023-01-28T02:40:47;6.93;;;4.67;;
15944;SDS011;30172;48.832;8.732;2023-01-28T02:43:30;5.87;;;4.47;;
15944;SDS011;30172;48.832;8.732;2023-01-28T02:45:59;5.73;;;4.73;;
15944;SDS011;30172;48.832;8.732;2023-01-28T02:48:46;6.97;;;4.83;;
15944;SDS011;30172;48.832;8.732;2023-01-28T02:51:32;7.77;;;4.80;;
15944;SDS011;30172;48.832;8.732;2023-01-28T02:54:10;6.20;;;4.97;;
15944;SDS011;30172;48.832;8.732;2023-01-28T02:56:40;7.57;;;5.27;;
15944;SDS011;30172;48.832;8.732;2023-01-28T02:59:11;6.70;;;4.50;;
15944;SDS011;30172;48.832;8.732;2023-01-28T03:02:45;6.63;;;4.57;;
15944;SDS011;30172;48.832;8.732;2023-01-28T03:04:58;9.03;;;5.40;;
15944;SDS011;30172;48.832;8.732;2023-01-28T03:07:46;7.93;;;4.67;;
15944;SDS011;30172;48.832;8.732;2023-01-28T03:10:13;7.73;;;4.90;;
15944;SDS011;30172;48.832;8.732;2023-01-28T03:12:41;7.63;;;5.20;;
15944;SDS011;30172;48.832;8.732;2023-01-28T03:15:39;7.03;;;5.20;;
15944;SDS011;30172;48.832;8.732;2023-01-28T03:18:38;6.63;;;5.00;;
15944;SDS011;30172;48.832;8.732;2023-01-28T03:21:30;8.40;;;5.63;;
15944;SDS011;30172;48.832;8.732;2023-01-28T03:24:16;8.53;;;5.23;;
15944;SDS011;30172;48.832;8.732;2023-01-28T03:27:06;8.17;;;5.17;;
15944;SDS011;30172;48.832;8.732;2023-01-28T03:29:55;7.90;;;5.23;;
15944;SDS011;30172;48.832;8.732;2023-01-28T03:32:41;7.67;;;5.33;;
15944;SDS011;30172;48.832;8.732;2023-01-28T03:35:27;5.97;;;4.83;;
15944;SDS011;30172;48.832;8.732;2023-01-28T03:38:13;7.67;;;5.53;;
15944;SDS011;30172;48.832;8.732;2023-01-28T03:40:54;7.97;;;5.23;;
15944;SDS011;30172;48.832;8.732;2023-01-28T03:43:20;7.50;;;5.67;;
15944;SDS011;30172;48.832;8.732;2023-01-28T03:45:46;7.93;;;5.87;;
15944;SDS011;30172;48.832;8.732;2023-01-28T03:48:16;7.83;;;5.63;;
15944;SDS011;30172;48.832;8.732;2023-01-28T03:50:44;8.20;;;5.80;;
15944;SDS011;30172;48.832;8.732;2023-01-28T03:53:10;7.40;;;5.40;;
15944;SDS011;30172;48.832;8.732;2023-01-28T03:55:39;9.23;;;5.87;;
15944;SDS011;30172;48.832;8.732;2023-01-28T03:58:05;8.80;;;5.70;;
15944;SDS011;30172;48.832;8.732;2023-01-28T04:00:30;8.30;;;5.67;;
15944;SDS011;30172;48.832;8.732;2023-01-28T04:02:56;7.47;;;5.73;;
15944;SDS011;30172;48.832;8.732;2023-01-28T04:05:22;8.60;;;6.00;;
15944;SDS011;30172;48.832;8.732;2023-01-28T04:07:47;10.17;;;5.53;;
15944;SDS011;30172;48.832;8.732;2023-01-28T04:10:15;8.33;;;6.00;;
15944;SDS011;30172;48.832;8.732;2023-01-28T04:12:41;11.67;;;6.83;;
15944;SDS011;30172;48.832;8.732;2023-01-28T04:15:06;11.80;;;6.90;;
15944;SDS011;30172;48.832;8.732;2023-01-28T04:17:39;12.97;;;7.77;;
15944;SDS011;30172;48.832;8.732;2023-01-28T04:20:08;10.93;;;6.87;;
15944;SDS011;30172;48.832;8.732;2023-01-28T04:22:34;9.47;;;6.33;;
15944;SDS011;30172;48.832;8.732;2023-01-28T04:24:59;10.80;;;7.53;;
15944;SDS011;30172;48.832;8.732;2023-01-28T04:27:24;10.70;;;7.07;;
15944;SDS011;30172;48.832;8.732;2023-01-28T04:29:50;9.77;;;6.70;;
15944;SDS011;30172;48.832;8.732;2023-01-28T04:32:15;12.73;;;8.03;;
15944;SDS011;30172;48.832;8.732;2023-01-28T04:34:40;11.10;;;7.20;;
15944;SDS011;30172;48.832;8.732;2023-01-28T04:37:05;11.20;;;7.13;;
15944;SDS011;30172;48.832;8.732;2023-01-28T04:39:31;11.07;;;7.33;;
15944;SDS011;30172;48.832;8.732;2023-01-28T04:41:56;13.30;;;8.60;;
15944;SDS011;30172;48.832;8.732;2023-01-28T04:44:21;19.73;;;10.83;;
15944;SDS011;30172;48.832;8.732;2023-01-28T04:46:46;12.83;;;8.23;;
15944;SDS011;30172;48.832;8.732;2023-01-28T04:49:12;12.57;;;7.80;;
15944;SDS011;30172;48.832;8.732;2023-01-28T04:51:37;11.73;;;7.67;;
15944;SDS011;30172;48.832;8.732;2023-01-28T04:54:02;17.77;;;9.83;;
15944;SDS011;30172;48.832;8.732;2023-01-28T04:56:28;17.50;;;9.00;;
15944;SDS011;30172;48.832;8.732;2023-01-28T04:58:53;15.60;;;9.07;;
15944;SDS011;30172;48.832;8.732;2023-01-28T05:01:18;12.13;;;7.50;;
15944;SDS011;30172;48.832;8.732;2023-01-28T05:03:44;10.37;;;7.33;;
15944;SDS011;30172;48.832;8.732;2023-01-28T05:06:09;12.50;;;8.23;;
15944;SDS011;30172;48.832;8.732;2023-01-28T05:08:34;9.57;;;6.80;;
15944;SDS011;30172;48.832;8.732;2023-01-28T05:11:00;10.67;;;7.50;;
15944;SDS011;30172;48.832;8.732;2023-01-28T05:13:25;12.17;;;7.57;;
15944;SDS011;30172;48.832;8.732;2023-01-28T05:15:51;11.13;;;7.53;;
15944;SDS011;30172;48.832;8.732;2023-01-28T05:18:17;11.90;;;8.33;;
15944;SDS011;30172;48.832;8.732;2023-01-28T05:20:42;13.67;;;8.23;;
15944;SDS011;30172;48.832;8.732;2023-01-28T05:23:07;13.50;;;8.97;;
15944;SDS011;30172;48.832;8.732;2023-01-28T05:25:33;12.37;;;8.73;;
15944;SDS011;30172;48.832;8.732;2023-01-28T05:27:58;12.53;;;7.80;;
15944;SDS011;30172;48.832;8.732;2023-01-28T05:30:23;12.80;;;8.67;;
15944;SDS011;30172;48.832;8.732;2023-01-28T05:32:53;12.73;;;8.47;;
15944;SDS011;30172;48.832;8.732;2023-01-28T05:35:19;13.70;;;8.87;;
15944;SDS011;30172;48.832;8.732;2023-01-28T05:37:44;15.10;;;9.50;;
15944;SDS011;30172;48.832;8.732;2023-01-28T05:40:09;15.90;;;8.93;;
15944;SDS011;30172;48.832;8.732;2023-01-28T05:42:35;12.83;;;8.80;;
15944;SDS011;30172;48.832;8.732;2023-01-28T05:45:00;13.13;;;8.13;;
15944;SDS011;30172;48.832;8.732;2023-01-28T05:47:26;12.73;;;8.10;;
15944;SDS011;30172;48.832;8.732;2023-01-28T05:49:51;12.63;;;8.37;;
15944;SDS011;30172;48.832;8.732;2023-01-28T05:52:16;10.13;;;7.60;;
15944;SDS011;30172;48.832;8.732;2023-01-28T05:54:41;12.73;;;9.10;;
15944;SDS011;30172;48.832;8.732;2023-01-28T05:57:07;12.50;;;8.73;;
15944;SDS011;30172;48.832;8.732;2023-01-28T05:59:32;13.13;;;8.73;;
15944;SDS011;30172;48.832;8.732;2023-01-28T06:01:57;13.60;;;9.67;;
15944;SDS011;30172;48.832;8.732;2023-01-28T06:04:23;12.83;;;9.53;;
15944;SDS011;30172;48.832;8.732;2023-01-28T06:06:48;12.40;;;9.20;;
15944;SDS011;30172;48.832;8.732;2023-01-28T06:09:13;12.57;;;9.73;;
15944;SDS011;30172;48.832;8.732;2023-01-28T06:11:39;13.10;;;9.57;;
15944;SDS011;30172;48.832;8.732;2023-01-28T06:14:04;13.90;;;9.67;;
15944;SDS011;30172;48.832;8.732;2023-01-28T06:16:29;14.60;;;9.77;;
15944;SDS011;30172;48.832;8.732;2023-01-28T06:18:54;13.87;;;9.57;;
15944;SDS011;30172;48.832;8.732;2023-01-28T06:21:20;14.77;;;10.47;;
15944;SDS011;30172;48.832;8.732;2023-01-28T06:23:45;14.17;;;10.13;;
15944;SDS011;30172;48.832;8.732;2023-01-28T06:26:10;17.40;;;11.30;;
15944;SDS011;30172;48.832;8.732;2023-01-28T06:28:36;16.47;;;11.23;;
15944;SDS011;30172;48.832;8.732;2023-01-28T06:31:01;18.33;;;10.77;;
15944;SDS011;30172;48.832;8.732;2023-01-28T06:33:26;14.40;;;10.43;;
15944;SDS011;30172;48.832;8.732;2023-01-28T06:35:53;15.40;;;11.97;;
15944;SDS011;30172;48.832;8.732;2023-01-28T06:38:18;15.97;;;10.57;;
15944;SDS011;30172;48.832;8.732;2023-01-28T06:40:43;17.13;;;10.83;;
15944;SDS011;30172;48.832;8.732;2023-01-28T06:43:09;17.33;;;11.03;;
15944;SDS011;30172;48.832;8.732;2023-01-28T06:45:34;20.83;;;13.80;;
15944;SDS011;30172;48.832;8.732;2023-01-28T06:47:59;21.93;;;12.93;;
15944;SDS011;30172;48.832;8.732;2023-01-28T06:50:24;18.67;;;12.33;;
15944;SDS011;30172;48.832;8.732;2023-01-28T06:52:50;16.47;;;12.00;;
15944;SDS011;30172;48.832;8.732;2023-01-28T06:55:15;15.40;;;12.10;;
15944;SDS011;30172;48.832;8.732;2023-01-28T06:57:40;18.10;;;11.63;;
15944;SDS011;30172;48.832;8.732;2023-01-28T07:00:07;18.73;;;12.83;;
15944;SDS011;30172;48.832;8.732;2023-01-28T07:02:35;18.50;;;12.67;;
15944;SDS011;30172;48.832;8.732;2023-01-28T07:05:03;20.60;;;15.20;;
15944;SDS011;30172;48.832;8.732;2023-01-28T07:07:29;18.93;;;13.53;;
15944;SDS011;30172;48.832;8.732;2023-01-28T07:09:54;16.07;;;12.53;;
15944;SDS011;30172;48.832;8.732;2023-01-28T07:12:19;18.67;;;11.30;;
15944;SDS011;30172;48.832;8.732;2023-01-28T07:14:45;18.13;;;13.63;;
15944;SDS011;30172;48.832;8.732;2023-01-28T07:17:10;20.37;;;14.80;;
15944;SDS011;30172;48.832;8.732;2023-01-28T07:19:35;17.87;;;12.77;;
15944;SDS011;30172;48.832;8.732;2023-01-28T07:22:01;20.07;;;13.60;;
15944;SDS011;30172;48.832;8.732;2023-01-28T07:24:27;18.83;;;13.00;;
15944;SDS011;30172;48.832;8.732;2023-01-28T07:26:53;19.40;;;13.53;;
15944;SDS011;30172;48.832;8.732;2023-01-28T07:29:18;19.47;;;13.63;;
15944;SDS011;30172;48.832;8.732;2023-01-28T07:31:43;20.57;;;13.37;;
15944;SDS011;30172;48.832;8.732;2023-01-28T07:34:09;20.60;;;13.03;;
15944;SDS011;30172;48.832;8.732;2023-01-28T07:36:34;20.23;;;14.00;;
15944;SDS011;30172;48.832;8.732;2023-01-28T07:38:59;22.37;;;16.40;;
15944;SDS011;30172;48.832;8.732;2023-01-28T07:41:25;19.93;;;15.43;;
15944;SDS011;30172;48.832;8.732;2023-01-28T07:43:50;27.77;;;17.57;;
15944;SDS011;30172;48.832;8.732;2023-01-28T07:46:15;23.73;;;14.43;;
15944;SDS011;30172;48.832;8.732;2023-01-28T07:48:40;23.50;;;14.90;;
15944;SDS011;30172;48.832;8.732;2023-01-28T07:51:06;25.60;;;15.73;;
15944;SDS011;30172;48.832;8.732;2023-01-28T07:53:31;23.33;;;15.27;;
15944;SDS011;30172;48.832;8.732;2023-01-28T07:56:00;23.60;;;14.37;;
15944;SDS011;30172;48.832;8.732;2023-01-28T07:58:25;21.70;;;13.90;;
15944;SDS011;30172;48.832;8.732;2023-01-28T08:00:51;25.90;;;16.07;;
15944;SDS011;30172;48.832;8.732;2023-01-28T08:03:20;20.57;;;14.10;;
15944;SDS011;30172;48.832;8.732;2023-01-28T08:05:47;28.50;;;16.70;;
15944;SDS011;30172;48.832;8.732;2023-01-28T08:08:16;23.00;;;15.47;;
15944;SDS011;30172;48.832;8.732;2023-01-28T08:10:41;22.43;;;14.73;;
15944;SDS011;30172;48.832;8.732;2023-01-28T08:13:08;22.30;;;16.07;;
15944;SDS011;30172;48.832;8.732;2023-01-28T08:15:34;26.43;;;17.00;;
15944;SDS011;30172;48.832;8.732;2023-01-28T08:18:02;24.30;;;15.63;;
15944;SDS011;30172;48.832;8.732;2023-01-28T08:20:28;23.63;;;16.63;;
15944;SDS011;30172;48.832;8.732;2023-01-28T08:23:03;28.93;;;18.40;;
15944;SDS011;30172;48.832;8.732;2023-01-28T08:25:32;24.20;;;16.43;;
15944;SDS011;30172;48.832;8.732;2023-01-28T08:27:57;29.93;;;16.00;;
15944;SDS011;30172;48.832;8.732;2023-01-28T08:30:23;23.53;;;15.93;;
15944;SDS011;30172;48.832;8.732;2023-01-28T08:32:48;21.93;;;15.50;;
15944;SDS011;30172;48.832;8.732;2023-01-28T08:35:13;20.30;;;15.33;;
15944;SDS011;30172;48.832;8.732;2023-01-28T08:37:39;22.57;;;17.30;;
15944;SDS011;30172;48.832;8.732;2023-01-28T08:40:04;21.50;;;16.17;;
15944;SDS011;30172;48.832;8.732;2023-01-28T08:42:30;21.17;;;14.97;;
15944;SDS011;30172;48.832;8.732;2023-01-28T08:44:55;20.67;;;13.83;;
15944;SDS011;30172;48.832;8.732;2023-01-28T08:47:20;21.93;;;15.30;;
15944;SDS011;30172;48.832;8.732;2023-01-28T08:49:46;22.77;;;16.10;;
15944;SDS011;30172;48.832;8.732;2023-01-28T08:52:11;21.10;;;14.43;;
15944;SDS011;30172;48.832;8.732;2023-01-28T08:54:36;26.63;;;15.97;;
15944;SDS011;30172;48.832;8.732;2023-01-28T08:57:02;23.23;;;15.57;;
15944;SDS011;30172;48.832;8.732;2023-01-28T08:59:28;20.77;;;13.73;;
15944;SDS011;30172;48.832;8.732;2023-01-28T09:01:53;22.83;;;13.73;;
15944;SDS011;30172;48.832;8.732;2023-01-28T09:04:18;22.43;;;14.37;;
15944;SDS011;30172;48.832;8.732;2023-01-28T09:06:44;18.83;;;13.60;;
15944;SDS011;30172;48.832;8.732;2023-01-28T09:09:09;17.90;;;12.50;;
15944;SDS011;30172;48.832;8.732;2023-01-28T09:11:34;26.73;;;17.97;;
15944;SDS011;30172;48.832;8.732;2023-01-28T09:13:59;29.43;;;18.80;;
15944;SDS011;30172;48.832;8.732;2023-01-28T09:16:25;22.87;;;15.40;;
15944;SDS011;30172;48.832;8.732;2023-01-28T09:18:50;25.07;;;16.90;;
15944;SDS011;30172;48.832;8.732;2023-01-28T09:21:16;28.57;;;17.17;;
15944;SDS011;30172;48.832;8.732;2023-01-28T09:23:41;23.40;;;16.07;;
15944;SDS011;30172;48.832;8.732;2023-01-28T09:26:07;22.70;;;15.20;;
15944;SDS011;30172;48.832;8.732;2023-01-28T09:28:33;24.07;;;16.60;;
15944;SDS011;30172;48.832;8.732;2023-01-28T09:31:06;20.47;;;13.30;;
15944;SDS011;30172;48.832;8.732;2023-01-28T09:33:33;23.57;;;17.13;;
15944;SDS011;30172;48.832;8.732;2023-01-28T09:35:59;25.73;;;16.23;;
15944;SDS011;30172;48.832;8.732;2023-01-28T09:38:25;21.13;;;13.80;;
15944;SDS011;30172;48.832;8.732;2023-01-28T09:40:51;23.23;;;15.40;;
15944;SDS011;30172;48.832;8.732;2023-01-28T09:46:23;26.37;;;16.93;;
15944;SDS011;30172;48.832;8.732;2023-01-28T09:48:54;26.40;;;15.90;;
15944;SDS011;30172;48.832;8.732;2023-01-28T09:51:39;26.17;;;16.57;;
15944;SDS011;30172;48.832;8.732;2023-01-28T09:54:11;20.90;;;15.33;;
15944;SDS011;30172;48.832;8.732;2023-01-28T09:56:44;23.53;;;15.60;;
15944;SDS011;30172;48.832;8.732;2023-01-28T09:59:32;27.13;;;15.43;;
15944;SDS011;30172;48.832;8.732;2023-01-28T10:04:51;24.17;;;15.50;;
15944;SDS011;30172;48.832;8.732;2023-01-28T10:10:13;21.00;;;14.27;;
15944;SDS011;30172;48.832;8.732;2023-01-28T10:12:57;21.17;;;13.80;;
15944;SDS011;30172;48.832;8.732;2023-01-28T10:15:46;21.47;;;14.30;;
15944;SDS011;30172;48.832;8.732;2023-01-28T10:18:14;24.47;;;13.70;;
15944;SDS011;30172;48.832;8.732;2023-01-28T10:20:41;20.40;;;13.27;;
15944;SDS011;30172;48.832;8.732;2023-01-28T10:23:19;22.43;;;15.43;;
15944;SDS011;30172;48.832;8.732;2023-01-28T10:25:48;24.20;;;15.53;;
15944;SDS011;30172;48.832;8.732;2023-01-28T10:28:18;24.00;;;15.13;;
15944;SDS011;30172;48.832;8.732;2023-01-28T10:30:45;27.40;;;17.60;;
15944;SDS011;30172;48.832;8.732;2023-01-28T10:33:16;23.00;;;15.07;;
15944;SDS011;30172;48.832;8.732;2023-01-28T10:35:44;24.63;;;17.13;;
15944;SDS011;30172;48.832;8.732;2023-01-28T10:38:12;27.13;;;17.23;;
15944;SDS011;30172;48.832;8.732;2023-01-28T10:40:39;37.03;;;22.63;;
15944;SDS011;30172;48.832;8.732;2023-01-28T10:43:06;26.30;;;17.03;;
15944;SDS011;30172;48.832;8.732;2023-01-28T10:45:45;26.90;;;17.67;;
15944;SDS011;30172;48.832;8.732;2023-01-28T10:48:20;26.87;;;16.43;;
15944;SDS011;30172;48.832;8.732;2023-01-28T10:50:52;32.23;;;19.90;;
15944;SDS011;30172;48.832;8.732;2023-01-28T10:53:32;30.57;;;20.77;;
15944;SDS011;30172;48.832;8.732;2023-01-28T10:55:58;28.90;;;17.93;;
15944;SDS011;30172;48.832;8.732;2023-01-28T10:58:26;28.07;;;17.73;;
15944;SDS011;30172;48.832;8.732;2023-01-28T11:00:53;19.57;;;12.87;;
15944;SDS011;30172;48.832;8.732;2023-01-28T11:03:22;22.57;;;14.73;;
15944;SDS011;30172;48.832;8.732;2023-01-28T11:05:51;21.20;;;14.67;;
15944;SDS011;30172;48.832;8.732;2023-01-28T11:08:18;21.83;;;14.63;;
15944;SDS011;30172;48.832;8.732;2023-01-28T11:10:44;19.50;;;12.90;;
15944;SDS011;30172;48.832;8.732;2023-01-28T11:13:14;20.67;;;13.57;;
15944;SDS011;30172;48.832;8.732;2023-01-28T11:16:02;21.03;;;14.60;;
15944;SDS011;30172;48.832;8.732;2023-01-28T11:18:37;19.77;;;12.13;;
15944;SDS011;30172;48.832;8.732;2023-01-28T11:21:05;29.33;;;17.70;;
15944;SDS011;30172;48.832;8.732;2023-01-28T11:23:46;36.40;;;19.97;;
15944;SDS011;30172;48.832;8.732;2023-01-28T11:26:13;25.10;;;15.93;;
15944;SDS011;30172;48.832;8.732;2023-01-28T11:28:42;25.63;;;16.67;;
15944;SDS011;30172;48.832;8.732;2023-01-28T11:31:08;19.37;;;14.07;;
15944;SDS011;30172;48.832;8.732;2023-01-28T11:33:48;39.77;;;25.17;;
15944;SDS011;30172;48.832;8.732;2023-01-28T11:36:16;35.97;;;25.77;;
15944;SDS011;30172;48.832;8.732;2023-01-28T11:41:15;26.20;;;20.70;;
15944;SDS011;30172;48.832;8.732;2023-01-28T11:43:41;22.33;;;15.07;;
15944;SDS011;30172;48.832;8.732;2023-01-28T11:51:29;17.97;;;12.07;;
15944;SDS011;30172;48.832;8.732;2023-01-28T11:56:53;21.83;;;15.67;;
15944;SDS011;30172;48.832;8.732;2023-01-28T11:59:30;20.67;;;14.23;;
15944;SDS011;30172;48.832;8.732;2023-01-28T12:13:53;23.07;;;16.67;;
15944;SDS011;30172;48.832;8.732;2023-01-28T12:19:35;22.77;;;14.30;;
15944;SDS011;30172;48.832;8.732;2023-01-28T12:22:15;18.90;;;12.23;;
15944;SDS011;30172;48.832;8.732;2023-01-28T12:24:58;16.97;;;11.27;;
15944;SDS011;30172;48.832;8.732;2023-01-28T12:27:50;17.77;;;12.00;;
15944;SDS011;30172;48.832;8.732;2023-01-28T12:41:22;16.33;;;11.60;;
15944;SDS011;30172;48.832;8.732;2023-01-28T12:44:02;15.00;;;10.80;;
15944;SDS011;30172;48.832;8.732;2023-01-28T12:46:38;14.47;;;10.83;;
15944;SDS011;30172;48.832;8.732;2023-01-28T12:54:24;16.63;;;10.97;;
15944;SDS011;30172;48.832;8.732;2023-01-28T12:56:53;17.37;;;11.67;;
15944;SDS011;30172;48.832;8.732;2023-01-28T13:02:02;13.87;;;11.20;;
15944;SDS011;30172;48.832;8.732;2023-01-28T13:04:41;15.93;;;11.27;;
15944;SDS011;30172;48.832;8.732;2023-01-28T13:07:17;12.90;;;9.60;;
15944;SDS011;30172;48.832;8.732;2023-01-28T13:10:27;10.80;;;8.60;;
15944;SDS011;30172;48.832;8.732;2023-01-28T13:13:18;15.40;;;10.70;;
15944;SDS011;30172;48.832;8.732;2023-01-28T13:15:52;14.63;;;9.73;;
15944;SDS011;30172;48.832;8.732;2023-01-28T13:21:04;15.57;;;9.77;;
15944;SDS011;30172;48.832;8.732;2023-01-28T13:23:48;11.00;;;8.23;;
15944;SDS011;30172;48.832;8.732;2023-01-28T13:28:47;11.63;;;8.90;;
15944;SDS011;30172;48.832;8.732;2023-01-28T13:31:14;22.67;;;13.80;;
15944;SDS011;30172;48.832;8.732;2023-01-28T13:36:28;13.33;;;11.03;;
15944;SDS011;30172;48.832;8.732;2023-01-28T13:39:03;13.37;;;8.77;;
15944;SDS011;30172;48.832;8.732;2023-01-28T13:44:19;14.37;;;10.07;;
15944;SDS011;30172;48.832;8.732;2023-01-28T13:46:51;15.73;;;10.57;;
15944;SDS011;30172;48.832;8.732;2023-01-28T13:49:20;14.37;;;8.30;;
15944;SDS011;30172;48.832;8.732;2023-01-28T13:51:55;13.43;;;9.77;;
15944;SDS011;30172;48.832;8.732;2023-01-28T13:54:28;18.43;;;10.57;;
15944;SDS011;30172;48.832;8.732;2023-01-28T14:02:42;22.47;;;15.00;;
15944;SDS011;30172;48.832;8.732;2023-01-28T14:08:16;20.27;;;13.27;;
15944;SDS011;30172;48.832;8.732;2023-01-28T14:18:58;22.53;;;13.20;;
15944;SDS011;30172;48.832;8.732;2023-01-28T14:21:25;19.43;;;12.63;;
15944;SDS011;30172;48.832;8.732;2023-01-28T14:23:52;17.63;;;12.07;;
15944;SDS011;30172;48.832;8.732;2023-01-28T14:26:27;24.03;;;13.93;;
15944;SDS011;30172;48.832;8.732;2023-01-28T14:31:34;21.63;;;13.73;;
15944;SDS011;30172;48.832;8.732;2023-01-28T14:36:50;20.20;;;12.20;;
15944;SDS011;30172;48.832;8.732;2023-01-28T14:39:19;23.47;;;13.67;;
15944;SDS011;30172;48.832;8.732;2023-01-28T14:41:47;19.90;;;12.03;;
15944;SDS011;30172;48.832;8.732;2023-01-28T14:44:19;17.03;;;12.33;;
15944;SDS011;30172;48.832;8.732;2023-01-28T14:49:42;17.63;;;11.40;;
15944;SDS011;30172;48.832;8.732;2023-01-28T14:52:39;18.80;;;12.27;;
15944;SDS011;30172;48.832;8.732;2023-01-28T14:55:27;17.73;;;11.03;;
15944;SDS011;30172;48.832;8.732;2023-01-28T14:57:57;20.10;;;13.13;;
15944;SDS011;30172;48.832;8.732;2023-01-28T15:00:29;36.07;;;23.93;;
15944;SDS011;30172;48.832;8.732;2023-01-28T15:02:56;30.00;;;22.33;;
15944;SDS011;30172;48.832;8.732;2023-01-28T15:05:24;28.40;;;18.13;;
15944;SDS011;30172;48.832;8.732;2023-01-28T15:07:51;26.03;;;17.80;;
15944;SDS011;30172;48.832;8.732;2023-01-28T15:12:46;35.83;;;25.27;;
15944;SDS011;30172;48.832;8.732;2023-01-28T15:15:33;24.67;;;14.27;;
15944;SDS011;30172;48.832;8.732;2023-01-28T15:18:01;24.20;;;17.20;;
15944;SDS011;30172;48.832;8.732;2023-01-28T15:20:28;22.37;;;16.00;;
15944;SDS011;30172;48.832;8.732;2023-01-28T15:22:54;20.03;;;14.27;;
15944;SDS011;30172;48.832;8.732;2023-01-28T15:25:20;22.77;;;15.33;;
15944;SDS011;30172;48.832;8.732;2023-01-28T15:27:46;25.80;;;17.80;;
15944;SDS011;30172;48.832;8.732;2023-01-28T15:30:28;25.53;;;22.83;;
15944;SDS011;30172;48.832;8.732;2023-01-28T15:35:26;15.27;;;10.67;;
15944;SDS011;30172;48.832;8.732;2023-01-28T15:37:51;13.47;;;10.57;;
15944;SDS011;30172;48.832;8.732;2023-01-28T15:40:17;17.27;;;10.47;;
15944;SDS011;30172;48.832;8.732;2023-01-28T15:42:45;13.57;;;10.27;;
15944;SDS011;30172;48.832;8.732;2023-01-28T15:45:15;11.70;;;9.03;;
15944;SDS011;30172;48.832;8.732;2023-01-28T15:47:41;15.13;;;10.40;;
15944;SDS011;30172;48.832;8.732;2023-01-28T15:50:06;13.53;;;9.73;;
15944;SDS011;30172;48.832;8.732;2023-01-28T15:52:33;14.53;;;9.70;;
15944;SDS011;30172;48.832;8.732;2023-01-28T15:55:01;14.60;;;11.13;;
15944;SDS011;30172;48.832;8.732;2023-01-28T15:57:28;16.20;;;11.03;;
15944;SDS011;30172;48.832;8.732;2023-01-28T16:00:13;21.20;;;14.73;;
15944;SDS011;30172;48.832;8.732;2023-01-28T16:02:47;12.97;;;9.23;;
15944;SDS011;30172;48.832;8.732;2023-01-28T16:05:22;14.60;;;8.83;;
15944;SDS011;30172;48.832;8.732;2023-01-28T16:07:54;16.23;;;11.53;;
15944;SDS011;30172;48.832;8.732;2023-01-28T16:10:22;17.30;;;11.63;;
15944;SDS011;30172;48.832;8.732;2023-01-28T16:12:50;17.27;;;11.63;;
15944;SDS011;30172;48.832;8.732;2023-01-28T16:15:18;17.80;;;12.87;;
15944;SDS011;30172;48.832;8.732;2023-01-28T16:17:46;12.87;;;9.67;;
15944;SDS011;30172;48.832;8.732;2023-01-28T16:20:23;16.83;;;11.33;;
15944;SDS011;30172;48.832;8.732;2023-01-28T16:22:50;16.93;;;11.73;;